sensor_id;sensor_type;location;lat;lon;timestamp;P1;durP1;ratioP1;P2;durP2;ratioP2
30818;SDS011;17546;42.674;23.284;2022-08-19T00:00:23;9.02;;;4.70;;
30818;SDS011;17546;42.674;23.284;2022-08-19T00:02:49;10.05;;;4.47;;
30818;SDS011;17546;42.674;23.284;2022-08-19T00:05:14;10.88;;;4.43;;
30818;SDS011;17546;42.674;23.284;2022-08-19T00:07:41;11.23;;;5.22;;
30818;SDS011;17546;42.674;23.284;2022-08-19T00:10:08;9.75;;;5.00;;
30818;SDS011;17546;42.674;23.284;2022-08-19T00:12:35;8.13;;;4.55;;
30818;SDS011;17546;42.674;23.284;2022-08-19T00:15:03;12.48;;;5.10;;
30818;SDS011;17546;42.674;23.284;2022-08-19T00:17:30;9.85;;;5.50;;
30818;SDS011;17546;42.674;23.284;2022-08-19T00:19:55;9.68;;;5.05;;
30818;SDS011;17546;42.674;23.284;2022-08-19T00:22:21;11.50;;;4.75;;
30818;SDS011;17546;42.674;23.284;2022-08-19T00:24:46;10.35;;;6.00;;
30818;SDS011;17546;42.674;23.284;2022-08-19T00:27:12;8.38;;;4.65;;
30818;SDS011;17546;42.674;23.284;2022-08-19T00:29:38;9.88;;;5.40;;
30818;SDS011;17546;42.674;23.284;2022-08-19T00:32:04;7.97;;;4.38;;
30818;SDS011;17546;42.674;23.284;2022-08-19T00:34:30;7.05;;;4.50;;
30818;SDS011;17546;42.674;23.284;2022-08-19T00:36:56;7.55;;;4.07;;
30818;SDS011;17546;42.674;23.284;2022-08-19T00:39:22;5.95;;;3.90;;
30818;SDS011;17546;42.674;23.284;2022-08-19T00:41:49;7.85;;;4.80;;
30818;SDS011;17546;42.674;23.284;2022-08-19T00:44:19;9.52;;;4.10;;
30818;SDS011;17546;42.674;23.284;2022-08-19T00:46:50;9.32;;;4.30;;
30818;SDS011;17546;42.674;23.284;2022-08-19T00:51:45;5.40;;;4.40;;
30818;SDS011;17546;42.674;23.284;2022-08-19T00:54:13;8.88;;;4.30;;
30818;SDS011;17546;42.674;23.284;2022-08-19T00:56:39;9.38;;;4.53;;
30818;SDS011;17546;42.674;23.284;2022-08-19T00:59:06;5.03;;;3.97;;
30818;SDS011;17546;42.674;23.284;2022-08-19T01:01:34;10.32;;;4.25;;
30818;SDS011;17546;42.674;23.284;2022-08-19T01:04:04;11.60;;;4.55;;
30818;SDS011;17546;42.674;23.284;2022-08-19T01:06:30;5.30;;;4.13;;
30818;SDS011;17546;42.674;23.284;2022-08-19T01:08:57;5.95;;;4.15;;
30818;SDS011;17546;42.674;23.284;2022-08-19T01:11:24;6.72;;;4.25;;
30818;SDS011;17546;42.674;23.284;2022-08-19T01:13:50;6.82;;;4.18;;
30818;SDS011;17546;42.674;23.284;2022-08-19T01:16:18;9.20;;;4.43;;
30818;SDS011;17546;42.674;23.284;2022-08-19T01:18:45;8.23;;;4.30;;
30818;SDS011;17546;42.674;23.284;2022-08-19T01:23:54;8.23;;;4.40;;
30818;SDS011;17546;42.674;23.284;2022-08-19T01:26:20;7.22;;;3.88;;
30818;SDS011;17546;42.674;23.284;2022-08-19T01:28:49;6.85;;;4.10;;
30818;SDS011;17546;42.674;23.284;2022-08-19T01:31:19;9.65;;;4.65;;
30818;SDS011;17546;42.674;23.284;2022-08-19T01:33:48;7.70;;;4.03;;
30818;SDS011;17546;42.674;23.284;2022-08-19T01:36:20;7.72;;;4.28;;
30818;SDS011;17546;42.674;23.284;2022-08-19T01:38:48;7.85;;;4.10;;
30818;SDS011;17546;42.674;23.284;2022-08-19T01:41:14;11.75;;;4.13;;
30818;SDS011;17546;42.674;23.284;2022-08-19T01:43:42;9.52;;;4.60;;
30818;SDS011;17546;42.674;23.284;2022-08-19T01:46:07;7.35;;;4.70;;
30818;SDS011;17546;42.674;23.284;2022-08-19T01:48:37;8.18;;;4.82;;
30818;SDS011;17546;42.674;23.284;2022-08-19T01:51:04;9.27;;;4.70;;
30818;SDS011;17546;42.674;23.284;2022-08-19T01:53:31;9.20;;;4.80;;
30818;SDS011;17546;42.674;23.284;2022-08-19T01:55:56;8.98;;;4.90;;
30818;SDS011;17546;42.674;23.284;2022-08-19T01:58:25;5.95;;;4.72;;
30818;SDS011;17546;42.674;23.284;2022-08-19T02:00:55;12.27;;;5.15;;
30818;SDS011;17546;42.674;23.284;2022-08-19T02:03:21;9.48;;;5.05;;
30818;SDS011;17546;42.674;23.284;2022-08-19T02:05:47;7.85;;;4.95;;
30818;SDS011;17546;42.674;23.284;2022-08-19T02:08:18;10.15;;;5.30;;
30818;SDS011;17546;42.674;23.284;2022-08-19T02:10:43;9.73;;;5.53;;
30818;SDS011;17546;42.674;23.284;2022-08-19T02:13:10;8.75;;;5.10;;
30818;SDS011;17546;42.674;23.284;2022-08-19T02:15:38;10.23;;;5.50;;
30818;SDS011;17546;42.674;23.284;2022-08-19T02:18:04;7.38;;;5.15;;
30818;SDS011;17546;42.674;23.284;2022-08-19T02:20:30;9.75;;;5.13;;
30818;SDS011;17546;42.674;23.284;2022-08-19T02:22:55;10.73;;;5.28;;
30818;SDS011;17546;42.674;23.284;2022-08-19T02:25:21;15.90;;;5.90;;
30818;SDS011;17546;42.674;23.284;2022-08-19T02:27:46;12.43;;;5.28;;
30818;SDS011;17546;42.674;23.284;2022-08-19T02:30:14;15.80;;;6.05;;
30818;SDS011;17546;42.674;23.284;2022-08-19T02:32:41;16.17;;;6.10;;
30818;SDS011;17546;42.674;23.284;2022-08-19T02:35:07;20.73;;;7.53;;
30818;SDS011;17546;42.674;23.284;2022-08-19T02:37:33;22.85;;;6.40;;
30818;SDS011;17546;42.674;23.284;2022-08-19T02:40:17;16.15;;;6.18;;
30818;SDS011;17546;42.674;23.284;2022-08-19T02:42:43;13.60;;;5.93;;
30818;SDS011;17546;42.674;23.284;2022-08-19T02:47:44;19.52;;;6.68;;
30818;SDS011;17546;42.674;23.284;2022-08-19T02:50:14;16.08;;;6.03;;
30818;SDS011;17546;42.674;23.284;2022-08-19T02:52:39;15.20;;;5.80;;
30818;SDS011;17546;42.674;23.284;2022-08-19T02:55:05;16.73;;;5.28;;
30818;SDS011;17546;42.674;23.284;2022-08-19T02:57:31;13.20;;;5.93;;
30818;SDS011;17546;42.674;23.284;2022-08-19T02:59:57;9.75;;;5.57;;
30818;SDS011;17546;42.674;23.284;2022-08-19T03:02:23;14.23;;;5.93;;
30818;SDS011;17546;42.674;23.284;2022-08-19T03:04:49;11.55;;;6.15;;
30818;SDS011;17546;42.674;23.284;2022-08-19T03:07:16;13.80;;;5.97;;
30818;SDS011;17546;42.674;23.284;2022-08-19T03:09:43;14.98;;;5.22;;
30818;SDS011;17546;42.674;23.284;2022-08-19T03:12:09;10.45;;;5.18;;
30818;SDS011;17546;42.674;23.284;2022-08-19T03:14:35;13.82;;;5.40;;
30818;SDS011;17546;42.674;23.284;2022-08-19T03:17:01;11.05;;;5.80;;
30818;SDS011;17546;42.674;23.284;2022-08-19T03:19:28;9.52;;;5.82;;
30818;SDS011;17546;42.674;23.284;2022-08-19T03:21:53;11.98;;;5.65;;
30818;SDS011;17546;42.674;23.284;2022-08-19T03:24:20;14.52;;;5.90;;
30818;SDS011;17546;42.674;23.284;2022-08-19T03:26:47;17.30;;;6.30;;
30818;SDS011;17546;42.674;23.284;2022-08-19T03:29:14;17.25;;;6.03;;
30818;SDS011;17546;42.674;23.284;2022-08-19T03:31:41;20.23;;;6.78;;
30818;SDS011;17546;42.674;23.284;2022-08-19T03:34:08;12.40;;;6.18;;
30818;SDS011;17546;42.674;23.284;2022-08-19T03:36:36;22.27;;;6.85;;
30818;SDS011;17546;42.674;23.284;2022-08-19T03:39:03;21.30;;;6.35;;
30818;SDS011;17546;42.674;23.284;2022-08-19T03:41:35;15.38;;;5.97;;
30818;SDS011;17546;42.674;23.284;2022-08-19T03:44:03;13.68;;;7.57;;
30818;SDS011;17546;42.674;23.284;2022-08-19T03:46:31;27.77;;;7.10;;
30818;SDS011;17546;42.674;23.284;2022-08-19T03:48:58;14.65;;;7.30;;
30818;SDS011;17546;42.674;23.284;2022-08-19T03:51:30;9.73;;;6.60;;
30818;SDS011;17546;42.674;23.284;2022-08-19T03:53:59;22.27;;;7.43;;
30818;SDS011;17546;42.674;23.284;2022-08-19T03:56:26;20.95;;;7.32;;
30818;SDS011;17546;42.674;23.284;2022-08-19T03:58:53;13.32;;;7.13;;
30818;SDS011;17546;42.674;23.284;2022-08-19T04:01:20;16.90;;;7.47;;
30818;SDS011;17546;42.674;23.284;2022-08-19T04:03:47;13.48;;;7.30;;
30818;SDS011;17546;42.674;23.284;2022-08-19T04:06:21;13.95;;;6.60;;
30818;SDS011;17546;42.674;23.284;2022-08-19T04:08:49;10.73;;;6.47;;
30818;SDS011;17546;42.674;23.284;2022-08-19T04:11:17;13.00;;;6.47;;
30818;SDS011;17546;42.674;23.284;2022-08-19T04:13:48;15.57;;;7.22;;
30818;SDS011;17546;42.674;23.284;2022-08-19T04:16:16;13.77;;;6.93;;
30818;SDS011;17546;42.674;23.284;2022-08-19T04:18:42;15.15;;;7.25;;
30818;SDS011;17546;42.674;23.284;2022-08-19T04:21:08;14.98;;;7.07;;
30818;SDS011;17546;42.674;23.284;2022-08-19T04:23:39;17.80;;;6.80;;
30818;SDS011;17546;42.674;23.284;2022-08-19T04:26:05;14.52;;;6.82;;
30818;SDS011;17546;42.674;23.284;2022-08-19T04:28:31;13.07;;;6.95;;
30818;SDS011;17546;42.674;23.284;2022-08-19T04:30:56;13.63;;;7.15;;
30818;SDS011;17546;42.674;23.284;2022-08-19T04:33:23;15.75;;;6.40;;
30818;SDS011;17546;42.674;23.284;2022-08-19T04:35:51;13.73;;;6.40;;
30818;SDS011;17546;42.674;23.284;2022-08-19T04:38:19;15.13;;;6.25;;
30818;SDS011;17546;42.674;23.284;2022-08-19T04:40:48;16.80;;;6.47;;
30818;SDS011;17546;42.674;23.284;2022-08-19T04:43:35;17.15;;;6.82;;
30818;SDS011;17546;42.674;23.284;2022-08-19T04:46:09;18.00;;;6.35;;
30818;SDS011;17546;42.674;23.284;2022-08-19T04:48:36;23.10;;;6.97;;
30818;SDS011;17546;42.674;23.284;2022-08-19T04:51:05;19.95;;;7.03;;
30818;SDS011;17546;42.674;23.284;2022-08-19T04:53:33;17.48;;;6.60;;
30818;SDS011;17546;42.674;23.284;2022-08-19T04:55:59;30.02;;;7.32;;
30818;SDS011;17546;42.674;23.284;2022-08-19T05:01:01;18.30;;;7.50;;
30818;SDS011;17546;42.674;23.284;2022-08-19T05:03:27;27.55;;;7.70;;
30818;SDS011;17546;42.674;23.284;2022-08-19T05:05:58;26.50;;;7.65;;
30818;SDS011;17546;42.674;23.284;2022-08-19T05:08:32;20.00;;;7.72;;
30818;SDS011;17546;42.674;23.284;2022-08-19T05:10:58;28.58;;;8.15;;
30818;SDS011;17546;42.674;23.284;2022-08-19T05:13:25;21.65;;;9.90;;
30818;SDS011;17546;42.674;23.284;2022-08-19T05:15:55;37.90;;;8.82;;
30818;SDS011;17546;42.674;23.284;2022-08-19T05:18:22;28.90;;;8.82;;
30818;SDS011;17546;42.674;23.284;2022-08-19T05:21:11;30.05;;;8.18;;
30818;SDS011;17546;42.674;23.284;2022-08-19T05:23:57;25.75;;;7.82;;
30818;SDS011;17546;42.674;23.284;2022-08-19T05:26:23;23.10;;;8.13;;
30818;SDS011;17546;42.674;23.284;2022-08-19T05:28:52;21.65;;;7.38;;
30818;SDS011;17546;42.674;23.284;2022-08-19T05:31:18;27.67;;;7.75;;
30818;SDS011;17546;42.674;23.284;2022-08-19T05:33:44;20.90;;;8.57;;
30818;SDS011;17546;42.674;23.284;2022-08-19T05:36:10;33.70;;;8.77;;
30818;SDS011;17546;42.674;23.284;2022-08-19T05:38:36;21.17;;;7.90;;
30818;SDS011;17546;42.674;23.284;2022-08-19T05:41:11;24.02;;;7.20;;
30818;SDS011;17546;42.674;23.284;2022-08-19T05:43:38;20.90;;;8.70;;
30818;SDS011;17546;42.674;23.284;2022-08-19T05:46:04;31.02;;;11.35;;
30818;SDS011;17546;42.674;23.284;2022-08-19T05:48:31;33.22;;;8.45;;
30818;SDS011;17546;42.674;23.284;2022-08-19T05:50:57;25.15;;;9.25;;
30818;SDS011;17546;42.674;23.284;2022-08-19T05:53:24;33.05;;;9.15;;
30818;SDS011;17546;42.674;23.284;2022-08-19T05:55:52;29.52;;;9.52;;
30818;SDS011;17546;42.674;23.284;2022-08-19T05:58:18;21.48;;;11.00;;
30818;SDS011;17546;42.674;23.284;2022-08-19T06:00:43;24.02;;;9.68;;
30818;SDS011;17546;42.674;23.284;2022-08-19T06:03:09;23.40;;;10.65;;
30818;SDS011;17546;42.674;23.284;2022-08-19T06:05:35;30.92;;;9.90;;
30818;SDS011;17546;42.674;23.284;2022-08-19T06:08:00;25.88;;;10.40;;
30818;SDS011;17546;42.674;23.284;2022-08-19T06:10:26;20.83;;;11.02;;
30818;SDS011;17546;42.674;23.284;2022-08-19T06:12:52;19.42;;;9.73;;
30818;SDS011;17546;42.674;23.284;2022-08-19T06:15:22;29.00;;;10.30;;
30818;SDS011;17546;42.674;23.284;2022-08-19T06:17:50;19.17;;;8.95;;
30818;SDS011;17546;42.674;23.284;2022-08-19T06:20:16;24.35;;;10.57;;
30818;SDS011;17546;42.674;23.284;2022-08-19T06:22:44;19.30;;;10.00;;
30818;SDS011;17546;42.674;23.284;2022-08-19T06:25:11;24.85;;;10.32;;
30818;SDS011;17546;42.674;23.284;2022-08-19T06:27:38;31.38;;;11.05;;
30818;SDS011;17546;42.674;23.284;2022-08-19T06:30:05;23.63;;;10.70;;
30818;SDS011;17546;42.674;23.284;2022-08-19T06:32:31;23.77;;;9.30;;
30818;SDS011;17546;42.674;23.284;2022-08-19T06:34:56;28.77;;;10.07;;
30818;SDS011;17546;42.674;23.284;2022-08-19T06:37:22;28.35;;;9.98;;
30818;SDS011;17546;42.674;23.284;2022-08-19T06:39:48;26.48;;;9.68;;
30818;SDS011;17546;42.674;23.284;2022-08-19T06:42:14;22.63;;;9.43;;
30818;SDS011;17546;42.674;23.284;2022-08-19T06:44:43;25.85;;;10.13;;
30818;SDS011;17546;42.674;23.284;2022-08-19T06:47:14;24.45;;;11.02;;
30818;SDS011;17546;42.674;23.284;2022-08-19T06:49:42;21.83;;;10.00;;
30818;SDS011;17546;42.674;23.284;2022-08-19T06:52:08;24.95;;;10.27;;
30818;SDS011;17546;42.674;23.284;2022-08-19T06:54:37;29.13;;;9.70;;
30818;SDS011;17546;42.674;23.284;2022-08-19T06:57:10;20.02;;;9.80;;
30818;SDS011;17546;42.674;23.284;2022-08-19T06:59:39;23.60;;;9.65;;
30818;SDS011;17546;42.674;23.284;2022-08-19T07:02:06;31.30;;;9.30;;
30818;SDS011;17546;42.674;23.284;2022-08-19T07:04:33;19.33;;;9.35;;
30818;SDS011;17546;42.674;23.284;2022-08-19T07:07:04;19.42;;;8.45;;
30818;SDS011;17546;42.674;23.284;2022-08-19T07:09:35;17.85;;;8.18;;
30818;SDS011;17546;42.674;23.284;2022-08-19T07:12:02;27.90;;;8.90;;
30818;SDS011;17546;42.674;23.284;2022-08-19T07:14:29;18.70;;;8.55;;
30818;SDS011;17546;42.674;23.284;2022-08-19T07:16:55;23.65;;;8.88;;
30818;SDS011;17546;42.674;23.284;2022-08-19T07:19:23;18.90;;;9.27;;
30818;SDS011;17546;42.674;23.284;2022-08-19T07:21:56;25.30;;;9.05;;
30818;SDS011;17546;42.674;23.284;2022-08-19T07:24:23;17.60;;;8.20;;
30818;SDS011;17546;42.674;23.284;2022-08-19T07:26:50;19.25;;;8.07;;
30818;SDS011;17546;42.674;23.284;2022-08-19T07:29:18;13.93;;;7.70;;
30818;SDS011;17546;42.674;23.284;2022-08-19T07:31:45;20.88;;;8.13;;
30818;SDS011;17546;42.674;23.284;2022-08-19T07:34:11;18.77;;;7.90;;
30818;SDS011;17546;42.674;23.284;2022-08-19T07:36:40;17.70;;;7.93;;
30818;SDS011;17546;42.674;23.284;2022-08-19T07:39:12;27.92;;;8.32;;
30818;SDS011;17546;42.674;23.284;2022-08-19T07:41:40;17.52;;;7.53;;
30818;SDS011;17546;42.674;23.284;2022-08-19T07:44:06;20.05;;;8.00;;
30818;SDS011;17546;42.674;23.284;2022-08-19T07:46:34;18.23;;;7.05;;
30818;SDS011;17546;42.674;23.284;2022-08-19T07:49:02;20.83;;;7.70;;
30818;SDS011;17546;42.674;23.284;2022-08-19T07:51:29;17.20;;;6.97;;
30818;SDS011;17546;42.674;23.284;2022-08-19T07:53:54;19.30;;;6.65;;
30818;SDS011;17546;42.674;23.284;2022-08-19T07:56:20;15.55;;;6.80;;
30818;SDS011;17546;42.674;23.284;2022-08-19T07:58:47;26.05;;;7.53;;
30818;SDS011;17546;42.674;23.284;2022-08-19T08:01:16;16.23;;;6.80;;
30818;SDS011;17546;42.674;23.284;2022-08-19T08:03:44;19.17;;;7.30;;
30818;SDS011;17546;42.674;23.284;2022-08-19T08:06:48;14.68;;;6.85;;
30818;SDS011;17546;42.674;23.284;2022-08-19T08:09:33;19.83;;;7.03;;
30818;SDS011;17546;42.674;23.284;2022-08-19T08:12:05;12.95;;;6.63;;
30818;SDS011;17546;42.674;23.284;2022-08-19T08:14:37;23.42;;;7.07;;
30818;SDS011;17546;42.674;23.284;2022-08-19T08:17:15;17.38;;;7.72;;
30818;SDS011;17546;42.674;23.284;2022-08-19T08:19:42;22.00;;;7.30;;
30818;SDS011;17546;42.674;23.284;2022-08-19T08:22:09;20.98;;;7.97;;
30818;SDS011;17546;42.674;23.284;2022-08-19T08:25:10;16.45;;;7.13;;
30818;SDS011;17546;42.674;23.284;2022-08-19T08:27:39;17.27;;;6.50;;
30818;SDS011;17546;42.674;23.284;2022-08-19T08:30:09;17.85;;;6.47;;
30818;SDS011;17546;42.674;23.284;2022-08-19T08:32:39;16.92;;;6.63;;
30818;SDS011;17546;42.674;23.284;2022-08-19T08:35:07;22.50;;;6.63;;
30818;SDS011;17546;42.674;23.284;2022-08-19T08:37:35;21.35;;;6.90;;
30818;SDS011;17546;42.674;23.284;2022-08-19T08:40:08;10.85;;;5.32;;
30818;SDS011;17546;42.674;23.284;2022-08-19T08:42:54;15.30;;;5.05;;
30818;SDS011;17546;42.674;23.284;2022-08-19T08:45:30;23.92;;;6.07;;
30818;SDS011;17546;42.674;23.284;2022-08-19T08:47:58;16.10;;;6.03;;
30818;SDS011;17546;42.674;23.284;2022-08-19T08:50:32;16.52;;;5.47;;
30818;SDS011;17546;42.674;23.284;2022-08-19T08:53:03;18.08;;;5.70;;
30818;SDS011;17546;42.674;23.284;2022-08-19T08:55:30;20.77;;;5.20;;
30818;SDS011;17546;42.674;23.284;2022-08-19T08:58:06;17.95;;;4.88;;
30818;SDS011;17546;42.674;23.284;2022-08-19T09:00:38;12.40;;;4.22;;
30818;SDS011;17546;42.674;23.284;2022-08-19T09:03:16;11.25;;;4.63;;
30818;SDS011;17546;42.674;23.284;2022-08-19T09:06:03;9.95;;;4.28;;
30818;SDS011;17546;42.674;23.284;2022-08-19T09:17:03;16.45;;;4.82;;
30818;SDS011;17546;42.674;23.284;2022-08-19T09:19:33;6.28;;;3.63;;
30818;SDS011;17546;42.674;23.284;2022-08-19T09:22:00;15.00;;;3.75;;
30818;SDS011;17546;42.674;23.284;2022-08-19T09:24:30;10.80;;;3.90;;
30818;SDS011;17546;42.674;23.284;2022-08-19T09:26:55;11.77;;;3.65;;
30818;SDS011;17546;42.674;23.284;2022-08-19T09:29:21;6.88;;;3.60;;
30818;SDS011;17546;42.674;23.284;2022-08-19T09:31:46;12.10;;;3.55;;
30818;SDS011;17546;42.674;23.284;2022-08-19T09:34:12;11.32;;;3.47;;
30818;SDS011;17546;42.674;23.284;2022-08-19T09:36:40;9.52;;;3.92;;
30818;SDS011;17546;42.674;23.284;2022-08-19T09:39:06;6.13;;;3.45;;
30818;SDS011;17546;42.674;23.284;2022-08-19T09:41:34;10.20;;;3.25;;
30818;SDS011;17546;42.674;23.284;2022-08-19T09:44:00;6.43;;;2.85;;
30818;SDS011;17546;42.674;23.284;2022-08-19T09:46:26;6.97;;;3.13;;
30818;SDS011;17546;42.674;23.284;2022-08-19T09:48:53;11.27;;;4.18;;
30818;SDS011;17546;42.674;23.284;2022-08-19T09:51:20;7.68;;;3.53;;
30818;SDS011;17546;42.674;23.284;2022-08-19T09:53:48;6.85;;;3.42;;
30818;SDS011;17546;42.674;23.284;2022-08-19T09:56:15;10.25;;;3.78;;
30818;SDS011;17546;42.674;23.284;2022-08-19T09:58:42;8.18;;;3.90;;
30818;SDS011;17546;42.674;23.284;2022-08-19T10:01:08;11.20;;;3.60;;
30818;SDS011;17546;42.674;23.284;2022-08-19T10:03:35;7.97;;;3.05;;
30818;SDS011;17546;42.674;23.284;2022-08-19T10:06:02;5.50;;;3.50;;
30818;SDS011;17546;42.674;23.284;2022-08-19T10:08:30;7.68;;;2.95;;
30818;SDS011;17546;42.674;23.284;2022-08-19T10:10:57;6.70;;;3.00;;
30818;SDS011;17546;42.674;23.284;2022-08-19T10:13:25;7.57;;;3.00;;
30818;SDS011;17546;42.674;23.284;2022-08-19T10:15:53;10.60;;;3.22;;
30818;SDS011;17546;42.674;23.284;2022-08-19T10:18:22;9.43;;;3.30;;
30818;SDS011;17546;42.674;23.284;2022-08-19T10:20:49;8.90;;;2.97;;
30818;SDS011;17546;42.674;23.284;2022-08-19T10:23:16;7.15;;;3.28;;
30818;SDS011;17546;42.674;23.284;2022-08-19T10:25:46;11.30;;;3.25;;
30818;SDS011;17546;42.674;23.284;2022-08-19T10:28:11;11.07;;;3.63;;
30818;SDS011;17546;42.674;23.284;2022-08-19T10:30:40;17.83;;;4.60;;
30818;SDS011;17546;42.674;23.284;2022-08-19T10:33:06;7.82;;;4.00;;
30818;SDS011;17546;42.674;23.284;2022-08-19T10:35:32;8.73;;;4.05;;
30818;SDS011;17546;42.674;23.284;2022-08-19T10:37:57;12.82;;;3.85;;
30818;SDS011;17546;42.674;23.284;2022-08-19T10:40:25;6.25;;;3.58;;
30818;SDS011;17546;42.674;23.284;2022-08-19T10:42:53;14.10;;;3.97;;
30818;SDS011;17546;42.674;23.284;2022-08-19T10:45:23;14.43;;;3.88;;
30818;SDS011;17546;42.674;23.284;2022-08-19T10:47:54;8.05;;;4.03;;
30818;SDS011;17546;42.674;23.284;2022-08-19T10:50:19;20.00;;;5.32;;
30818;SDS011;17546;42.674;23.284;2022-08-19T10:53:04;9.52;;;4.03;;
30818;SDS011;17546;42.674;23.284;2022-08-19T10:55:36;11.63;;;4.45;;
30818;SDS011;17546;42.674;23.284;2022-08-19T10:58:21;6.70;;;3.45;;
30818;SDS011;17546;42.674;23.284;2022-08-19T11:00:57;10.93;;;3.83;;
30818;SDS011;17546;42.674;23.284;2022-08-19T11:03:25;7.23;;;3.70;;
30818;SDS011;17546;42.674;23.284;2022-08-19T11:06:01;11.02;;;3.58;;
30818;SDS011;17546;42.674;23.284;2022-08-19T11:08:30;13.38;;;4.00;;
30818;SDS011;17546;42.674;23.284;2022-08-19T11:10:58;9.07;;;3.90;;
30818;SDS011;17546;42.674;23.284;2022-08-19T11:13:33;18.17;;;4.30;;
30818;SDS011;17546;42.674;23.284;2022-08-19T11:16:06;7.82;;;3.63;;
30818;SDS011;17546;42.674;23.284;2022-08-19T11:18:35;7.60;;;3.25;;
30818;SDS011;17546;42.674;23.284;2022-08-19T11:21:45;8.40;;;3.85;;
30818;SDS011;17546;42.674;23.284;2022-08-19T11:23:53;9.98;;;3.67;;
30818;SDS011;17546;42.674;23.284;2022-08-19T11:26:22;14.45;;;3.95;;
30818;SDS011;17546;42.674;23.284;2022-08-19T11:28:49;9.68;;;3.80;;
30818;SDS011;17546;42.674;23.284;2022-08-19T11:31:18;10.65;;;4.00;;
30818;SDS011;17546;42.674;23.284;2022-08-19T11:33:45;9.13;;;3.92;;
30818;SDS011;17546;42.674;23.284;2022-08-19T11:36:11;12.00;;;4.10;;
30818;SDS011;17546;42.674;23.284;2022-08-19T11:38:37;7.80;;;3.60;;
30818;SDS011;17546;42.674;23.284;2022-08-19T11:41:04;8.38;;;3.63;;
30818;SDS011;17546;42.674;23.284;2022-08-19T11:43:32;18.67;;;4.18;;
30818;SDS011;17546;42.674;23.284;2022-08-19T11:45:58;9.02;;;4.28;;
30818;SDS011;17546;42.674;23.284;2022-08-19T11:48:24;7.38;;;3.70;;
30818;SDS011;17546;42.674;23.284;2022-08-19T11:50:50;8.00;;;3.90;;
30818;SDS011;17546;42.674;23.284;2022-08-19T11:53:18;12.13;;;4.03;;
30818;SDS011;17546;42.674;23.284;2022-08-19T11:55:45;10.55;;;3.80;;
30818;SDS011;17546;42.674;23.284;2022-08-19T11:58:12;15.43;;;4.07;;
30818;SDS011;17546;42.674;23.284;2022-08-19T12:00:39;14.05;;;3.92;;
30818;SDS011;17546;42.674;23.284;2022-08-19T12:03:05;9.73;;;4.40;;
30818;SDS011;17546;42.674;23.284;2022-08-19T12:05:31;6.95;;;3.83;;
30818;SDS011;17546;42.674;23.284;2022-08-19T12:07:57;7.50;;;3.92;;
30818;SDS011;17546;42.674;23.284;2022-08-19T12:10:23;8.57;;;3.60;;
30818;SDS011;17546;42.674;23.284;2022-08-19T12:12:49;9.45;;;4.00;;
30818;SDS011;17546;42.674;23.284;2022-08-19T12:15:14;8.57;;;3.70;;
30818;SDS011;17546;42.674;23.284;2022-08-19T12:17:42;10.20;;;4.20;;
30818;SDS011;17546;42.674;23.284;2022-08-19T12:20:09;7.82;;;3.83;;
30818;SDS011;17546;42.674;23.284;2022-08-19T12:22:36;13.98;;;3.88;;
30818;SDS011;17546;42.674;23.284;2022-08-19T12:25:03;14.65;;;5.03;;
30818;SDS011;17546;42.674;23.284;2022-08-19T12:27:30;15.57;;;5.32;;
30818;SDS011;17546;42.674;23.284;2022-08-19T12:29:55;15.13;;;4.20;;
30818;SDS011;17546;42.674;23.284;2022-08-19T12:32:21;9.88;;;3.60;;
30818;SDS011;17546;42.674;23.284;2022-08-19T12:34:49;11.45;;;3.60;;
30818;SDS011;17546;42.674;23.284;2022-08-19T12:37:15;8.35;;;4.03;;
30818;SDS011;17546;42.674;23.284;2022-08-19T12:39:41;8.13;;;3.65;;
30818;SDS011;17546;42.674;23.284;2022-08-19T12:42:08;9.65;;;3.60;;
30818;SDS011;17546;42.674;23.284;2022-08-19T12:44:36;10.20;;;3.70;;
30818;SDS011;17546;42.674;23.284;2022-08-19T12:47:04;18.92;;;4.05;;
30818;SDS011;17546;42.674;23.284;2022-08-19T12:49:30;9.07;;;3.78;;
30818;SDS011;17546;42.674;23.284;2022-08-19T12:51:58;10.95;;;3.88;;
30818;SDS011;17546;42.674;23.284;2022-08-19T12:54:27;5.57;;;3.40;;
30818;SDS011;17546;42.674;23.284;2022-08-19T12:56:54;11.43;;;3.70;;
30818;SDS011;17546;42.674;23.284;2022-08-19T12:59:20;9.75;;;3.80;;
30818;SDS011;17546;42.674;23.284;2022-08-19T13:01:46;9.90;;;4.28;;
30818;SDS011;17546;42.674;23.284;2022-08-19T13:04:11;9.50;;;3.75;;
30818;SDS011;17546;42.674;23.284;2022-08-19T13:06:37;16.45;;;4.10;;
30818;SDS011;17546;42.674;23.284;2022-08-19T13:09:05;10.27;;;3.75;;
30818;SDS011;17546;42.674;23.284;2022-08-19T13:11:31;7.45;;;3.70;;
30818;SDS011;17546;42.674;23.284;2022-08-19T13:13:59;8.65;;;3.88;;
30818;SDS011;17546;42.674;23.284;2022-08-19T13:16:25;9.20;;;4.00;;
30818;SDS011;17546;42.674;23.284;2022-08-19T13:18:52;12.32;;;3.90;;
30818;SDS011;17546;42.674;23.284;2022-08-19T13:21:20;13.63;;;3.60;;
30818;SDS011;17546;42.674;23.284;2022-08-19T13:23:48;7.93;;;3.70;;
30818;SDS011;17546;42.674;23.284;2022-08-19T13:26:14;10.32;;;3.90;;
30818;SDS011;17546;42.674;23.284;2022-08-19T13:28:40;12.10;;;3.35;;
30818;SDS011;17546;42.674;23.284;2022-08-19T13:31:26;10.27;;;3.30;;
30818;SDS011;17546;42.674;23.284;2022-08-19T13:34:14;6.53;;;3.47;;
30818;SDS011;17546;42.674;23.284;2022-08-19T13:36:41;10.80;;;3.90;;
30818;SDS011;17546;42.674;23.284;2022-08-19T13:39:07;9.70;;;3.58;;
30818;SDS011;17546;42.674;23.284;2022-08-19T13:41:33;8.02;;;3.75;;
30818;SDS011;17546;42.674;23.284;2022-08-19T13:44:00;8.93;;;3.45;;
30818;SDS011;17546;42.674;23.284;2022-08-19T13:46:26;10.13;;;3.50;;
30818;SDS011;17546;42.674;23.284;2022-08-19T13:48:52;10.30;;;3.70;;
30818;SDS011;17546;42.674;23.284;2022-08-19T13:51:18;10.23;;;3.65;;
30818;SDS011;17546;42.674;23.284;2022-08-19T13:53:43;10.55;;;4.00;;
30818;SDS011;17546;42.674;23.284;2022-08-19T13:56:14;13.27;;;3.97;;
30818;SDS011;17546;42.674;23.284;2022-08-19T13:58:41;14.73;;;3.85;;
30818;SDS011;17546;42.674;23.284;2022-08-19T14:01:07;12.88;;;4.53;;
30818;SDS011;17546;42.674;23.284;2022-08-19T14:03:34;12.18;;;3.92;;
30818;SDS011;17546;42.674;23.284;2022-08-19T14:06:00;10.93;;;4.20;;
30818;SDS011;17546;42.674;23.284;2022-08-19T14:08:26;19.17;;;4.13;;
30818;SDS011;17546;42.674;23.284;2022-08-19T14:10:53;8.25;;;3.92;;
30818;SDS011;17546;42.674;23.284;2022-08-19T14:13:20;37.83;;;5.45;;
30818;SDS011;17546;42.674;23.284;2022-08-19T14:15:48;16.17;;;4.88;;
30818;SDS011;17546;42.674;23.284;2022-08-19T14:18:14;9.43;;;5.20;;
30818;SDS011;17546;42.674;23.284;2022-08-19T14:20:41;9.07;;;4.10;;
30818;SDS011;17546;42.674;23.284;2022-08-19T14:23:07;13.43;;;4.32;;
30818;SDS011;17546;42.674;23.284;2022-08-19T14:25:33;7.68;;;3.63;;
30818;SDS011;17546;42.674;23.284;2022-08-19T14:27:59;11.27;;;3.97;;
30818;SDS011;17546;42.674;23.284;2022-08-19T14:30:35;25.52;;;4.32;;
30818;SDS011;17546;42.674;23.284;2022-08-19T14:33:03;36.08;;;5.53;;
30818;SDS011;17546;42.674;23.284;2022-08-19T14:35:30;35.67;;;5.57;;
30818;SDS011;17546;42.674;23.284;2022-08-19T14:38:01;41.55;;;7.40;;
30818;SDS011;17546;42.674;23.284;2022-08-19T14:40:30;28.27;;;6.18;;
30818;SDS011;17546;42.674;23.284;2022-08-19T14:42:57;34.67;;;5.28;;
30818;SDS011;17546;42.674;23.284;2022-08-19T14:45:29;24.50;;;4.95;;
30818;SDS011;17546;42.674;23.284;2022-08-19T14:47:56;18.42;;;5.15;;
30818;SDS011;17546;42.674;23.284;2022-08-19T14:50:22;22.20;;;4.50;;